Wauconda, WA

4:58 PM PDT on September 02, 2014 (GMT -0700)
Fairchild Air Force Base | Change Station
CLOSE
Current Station
Airport
Location: Spokane Fairchild,
Elevation: 2461 ft
Nearby Weather Stations

Elev 2461 ft 47.62 °N, 117.66 °W | Updated 19 minutes ago

Mostly Cloudy
Mostly Cloudy
73 °F
Feels Like 73 °F
N
16
Wind Variable Wind from WSW

Today
High -- | Low -- °F
--% Chance of Precip.
Yesterday
High -- | Low -- °F
Precip. -- in
6:14 AM 7:35 PM
First Quarter, 56% visible
Pressure 29.72 in
Visibility 10.0 miles
Clouds Mostly Cloudy 15000 ft
Dew Point 41 °F
Humidity 31%
Rainfall 0.00 in
Snow Depth Not available.
UV 1 out of 12
Pollen 6.40 out of 12
Air Quality Not available.
Flu Activity Not available.
SPECI KSKA 022339Z AUTO 25014KT 10SM BKN150 23/05 A2972 RMK AO2 WSHFT 27

More Conditions Fewer Conditions

Pressure 29.72 in
Visibility 10.0 miles
Clouds Mostly Cloudy 15000 ft
Dew Point 41 °F
Humidity 31%
Rainfall 0.00 in
Snow Depth Not available.
UV 1 out of 12
Pollen 6.40 out of 12
Air Quality Not available.
Flu Activity Not available.
SPECI KSKA 022339Z AUTO 25014KT 10SM BKN150 23/05 A2972 RMK AO2 WSHFT 27

More Conditions Fewer Conditions

10-Day Weather Forecast

Almanac

Astronomy

Sep. 02, 2014 Rise Set
Actual Time 6:14 AM PDT 7:35 PM PDT
Civil Twilight 5:41 AM PDT 8:08 PM PDT
Nautical Twilight 5:02 AM PDT 8:47 PM PDT
Astronomical Twilight 4:19 AM PDT 9:29 PM PDT
Moon 2:38 PM PDT 11:58 PM PDT
Length of Visible Light 14h 26m
Length of Day
13h 21m
Tomorrow will be 3m 28s shorter.
First Quarter, 56% of the Moon is Illuminated
Today
First Quarter
Sep 8
Full
Sep 15
Last Quarter
Sep 24
New
Oct 1
First Quarter

Today's Extremes

State Highs State Lows

Community

WunderPhotos

Upload Photos

1,749,799 photos uploaded!

Nearby

Snow Depth

Station Depth Elevation
Moses Mountain 1 in 5300 ft
Sentinel Butte 0 in 4920 ft
Harts Pass 0 in 6500 ft
Rainy Pass 0 in 4780 ft
Swamp Creek 0 in 4000 ft

Earthquake Activity

City Distance Mag. Time & Date
No recent earthquake activity has been reported nearby.
Minimum magnitude displayed is 2.5.

Coastal Water Temperatures

Place Temperature
No Stations Reporting

Nearby Weather Stations